Time,TemperatureF,DewpointF,PressureIn,WindDirection,WindDirectionDegrees,WindSpeedMPH,WindSpeedGustMPH,Humidity,HourlyPrecipIn,Conditions,Clouds,dailyrainin,SoftwareType,DateUTC
2013-06-24 00:01:00,74.4,72.2,29.78,East,81,5.8,5.8,93,0.00,RA,SKC,0.00,WeatherDisplay:10.37,2013-06-24 05:01:00,
2013-06-24 00:06:00,74.4,72.2,29.78,East,88,7.4,7.4,93,0.00,RA,SKC,0.00,WeatherDisplay:10.37,2013-06-24 05:06:00,
2013-06-24 00:11:00,74.4,72.2,29.78,East,96,8.5,8.5,93,0.00,CLR,SKC,0.00,WeatherDisplay:10.37,2013-06-24 05:11:00,
2013-06-24 00:17:00,74.3,72.1,29.78,East,84,7.4,7.4,93,0.00,CLR,SKC,0.00,WeatherDisplay:10.37,2013-06-24 05:17:00,
2013-06-24 00:22:00,74.3,72.1,29.77,East,88,6.9,6.9,93,0.00,CLR,SKC,0.00,WeatherDisplay:10.37,2013-06-24 05:22:00,
2013-06-24 00:27:00,74.3,72.1,29.77,ENE,58,6.9,6.9,93,0.00,CLR,SKC,0.00,WeatherDisplay:10.37,2013-06-24 05:27:00,
2013-06-24 00:32:00,74.4,71.9,29.77,East,99,8.5,8.5,92,0.00,CLR,SKC,0.00,WeatherDisplay:10.37,2013-06-24 05:32:00,
2013-06-24 00:37:00,74.4,71.9,29.77,ESE,104,5.8,5.8,92,0.00,CLR,SKC,0.00,WeatherDisplay:10.37,2013-06-24 05:37:00,
2013-06-24 00:42:00,74.3,71.8,29.77,ESE,108,4.6,4.6,92,0.00,CLR,SKC,0.00,WeatherDisplay:10.37,2013-06-24 05:42:00,
2013-06-24 00:47:00,74.2,71.7,29.77,ESE,102,6.4,6.4,92,0.00,CLR,SKC,0.00,WeatherDisplay:10.37,2013-06-24 05:47:00,
2013-06-24 00:52:00,74.2,71.7,29.77,ESE,115,4.6,4.6,92,0.00,CLR,SKC,0.00,WeatherDisplay:10.37,2013-06-24 05:52:00,
2013-06-24 00:58:00,74.2,71.7,29.77,East,94,4.6,4.6,92,0.00,CLR,SKC,0.00,WeatherDisplay:10.37,2013-06-24 05:58:00,
2013-06-24 01:04:00,74.2,71.7,29.77,SE,125,4.6,4.6,92,0.00,CLR,SKC,0.00,WeatherDisplay:10.37,2013-06-24 06:04:00,
2013-06-24 01:09:00,74.2,71.7,29.77,ESE,111,6.9,6.9,92,0.00,CLR,SKC,0.00,WeatherDisplay:10.37,2013-06-24 06:09:00,
2013-06-24 01:14:00,74.3,71.8,29.77,SE,134,3.5,3.5,92,0.00,CLR,SKC,0.00,WeatherDisplay:10.37,2013-06-24 06:14:00,
2013-06-24 01:19:00,74.2,71.7,29.76,SE,129,4.2,4.2,92,0.00,CLR,SKC,0.00,WeatherDisplay:10.37,2013-06-24 06:19:00,
2013-06-24 01:25:00,74.1,71.6,29.76,SE,128,3.5,3.5,92,0.00,CLR,SKC,0.00,WeatherDisplay:10.37,2013-06-24 06:25:00,
2013-06-24 01:30:00,74.0,71.5,29.76,SSE,147,3.5,3.5,92,0.00,CLR,SKC,0.00,WeatherDisplay:10.37,2013-06-24 06:30:00,
2013-06-24 01:35:00,73.9,71.4,29.76,SE,140,3.5,3.5,92,0.00,CLR,SKC,0.00,WeatherDisplay:10.37,2013-06-24 06:35:00,
2013-06-24 01:41:00,73.9,71.4,29.76,SE,140,3.5,3.5,92,0.00,CLR,SKC,0.00,WeatherDisplay:10.37,2013-06-24 06:41:00,
2013-06-24 01:46:00,73.7,71.5,29.76,ESE,118,2.3,2.3,93,0.00,CLR,SKC,0.00,WeatherDisplay:10.37,2013-06-24 06:46:00,
2013-06-24 01:51:00,73.5,71.4,29.76,ESE,120,0.0,0.0,93,0.00,CLR,SKC,0.00,WeatherDisplay:10.37,2013-06-24 06:51:00,
2013-06-24 01:56:00,73.3,71.2,29.76,SE,131,0.0,0.0,93,0.00,CLR,SKC,0.00,WeatherDisplay:10.37,2013-06-24 06:56:00,
2013-06-24 02:02:00,73.1,71.0,29.75,ESE,116,0.0,0.0,93,0.00,CLR,SKC,0.00,WeatherDisplay:10.37,2013-06-24 07:02:00,
2013-06-24 02:08:00,73.0,71.2,29.76,SE,124,0.0,0.0,94,0.00,CLR,SKC,0.00,WeatherDisplay:10.37,2013-06-24 07:08:00,
2013-06-24 02:13:00,72.9,71.1,29.76,SE,137,0.0,0.0,94,0.00,CLR,SKC,0.00,WeatherDisplay:10.37,2013-06-24 07:13:00,
2013-06-24 02:18:00,72.9,71.1,29.75,ESE,117,0.0,0.0,94,0.00,CLR,SKC,0.00,WeatherDisplay:10.37,2013-06-24 07:18:00,
2013-06-24 02:23:00,72.9,71.1,29.75,ESE,122,3.5,3.5,94,0.00,CLR,SKC,0.00,WeatherDisplay:10.37,2013-06-24 07:23:00,
2013-06-24 02:29:00,73.1,71.0,29.75,SE,134,3.5,3.5,93,0.00,CLR,SKC,0.00,WeatherDisplay:10.37,2013-06-24 07:29:00,
2013-06-24 02:34:00,73.3,71.2,29.75,SE,126,2.3,2.3,93,0.00,CLR,SKC,0.00,WeatherDisplay:10.37,2013-06-24 07:34:00,
2013-06-24 02:39:00,73.3,70.8,29.75,ESE,117,1.2,1.2,92,0.00,CLR,SKC,0.00,WeatherDisplay:10.37,2013-06-24 07:39:00,
2013-06-24 02:44:00,73.5,70.7,29.75,ESE,102,0.0,0.0,91,0.00,CLR,SKC,0.00,WeatherDisplay:10.37,2013-06-24 07:44:00,
2013-06-24 02:49:00,73.5,70.7,29.76,ESE,117,0.0,0.0,91,0.00,CLR,SKC,0.00,WeatherDisplay:10.37,2013-06-24 07:49:00,
2013-06-24 02:54:00,73.5,70.4,29.76,SE,138,0.0,0.0,90,0.00,CLR,SKC,0.00,WeatherDisplay:10.37,2013-06-24 07:54:00,
2013-06-24 03:00:00,73.5,70.4,29.76,SE,124,0.0,0.0,90,0.00,CLR,SKC,0.00,WeatherDisplay:10.37,2013-06-24 08:00:00,
2013-06-24 03:05:00,73.6,70.2,29.76,ESE,116,0.0,0.0,89,0.00,CLR,SKC,0.00,WeatherDisplay:10.37,2013-06-24 08:05:00,
2013-06-24 03:10:00,73.7,70.3,29.76,ESE,110,0.0,0.0,89,0.00,CLR,SKC,0.00,WeatherDisplay:10.37,2013-06-24 08:10:00,
2013-06-24 03:15:00,73.7,69.9,29.76,ESE,114,0.0,0.0,88,0.00,CLR,SKC,0.00,WeatherDisplay:10.37,2013-06-24 08:15:00,
2013-06-24 03:20:00,73.7,69.9,29.76,ESE,111,0.0,0.0,88,0.00,CLR,SKC,0.00,WeatherDisplay:10.37,2013-06-24 08:20:00,
2013-06-24 03:25:00,73.9,70.1,29.76,ESE,122,2.3,2.3,88,0.00,CLR,SKC,0.00,WeatherDisplay:10.37,2013-06-24 08:25:00,
2013-06-24 03:31:00,74.0,69.9,29.76,East,98,3.5,3.5,87,0.00,CLR,SKC,0.00,WeatherDisplay:10.37,2013-06-24 08:31:00,
2013-06-24 03:36:00,73.9,69.8,29.76,East,94,3.5,3.5,87,0.00,CLR,SKC,0.00,WeatherDisplay:10.37,2013-06-24 08:36:00,
2013-06-24 03:41:00,73.6,69.8,29.76,East,89,5.3,5.3,88,0.00,CLR,SKC,0.00,WeatherDisplay:10.37,2013-06-24 08:41:00,
2013-06-24 03:46:00,73.4,69.6,29.76,East,86,4.2,4.2,88,0.00,CLR,SKC,0.00,WeatherDisplay:10.37,2013-06-24 08:46:00,
2013-06-24 03:51:00,73.3,69.9,29.77,East,90,3.5,3.5,89,0.00,CLR,SKC,0.00,WeatherDisplay:10.37,2013-06-24 08:51:00,
2013-06-24 03:57:00,73.7,69.9,29.77,ESE,109,3.5,3.5,88,0.00,CLR,SKC,0.00,WeatherDisplay:10.37,2013-06-24 08:57:00,
2013-06-24 04:02:00,74.3,69.8,29.77,SE,130,5.8,5.8,86,0.00,CLR,SKC,0.00,WeatherDisplay:10.37,2013-06-24 09:02:00,
2013-06-24 04:07:00,74.7,70.2,29.77,SE,127,5.8,5.8,86,0.00,CLR,SKC,0.00,WeatherDisplay:10.37,2013-06-24 09:07:00,
2013-06-24 04:13:00,74.7,70.2,29.77,ESE,120,4.6,4.6,86,0.00,CLR,SKC,0.00,WeatherDisplay:10.37,2013-06-24 09:13:00,
2013-06-24 04:19:00,74.9,70.1,29.77,East,96,5.8,5.8,85,0.00,CLR,SKC,0.00,WeatherDisplay:10.37,2013-06-24 09:19:00,
2013-06-24 04:24:00,74.9,70.1,29.77,ESE,105,7.4,7.4,85,0.00,CLR,SKC,0.00,WeatherDisplay:10.37,2013-06-24 09:24:00,
2013-06-24 04:29:00,74.9,70.1,29.77,ESE,108,5.8,5.8,85,0.00,CLR,SKC,0.00,WeatherDisplay:10.37,2013-06-24 09:29:00,
2013-06-24 04:34:00,74.9,70.1,29.77,SE,125,8.1,8.1,85,0.00,CLR,SKC,0.00,WeatherDisplay:10.37,2013-06-24 09:34:00,
2013-06-24 04:40:00,74.9,70.1,29.77,East,101,5.0,8.0,85,0.00,CLR,SKC,0.00,WeatherDisplay:10.37,2013-06-24 09:40:00,
2013-06-24 04:45:00,74.9,70.1,29.77,SE,143,4.6,4.6,85,0.00,CLR,SKC,0.00,WeatherDisplay:10.37,2013-06-24 09:45:00,
2013-06-24 04:50:00,74.9,70.1,29.77,ESE,110,6.4,6.4,85,0.00,CLR,SKC,0.00,WeatherDisplay:10.37,2013-06-24 09:50:00,
2013-06-24 04:55:00,74.9,70.1,29.78,East,99,4.6,4.6,85,0.00,CLR,SKC,0.00,WeatherDisplay:10.37,2013-06-24 09:55:00,
2013-06-24 05:00:00,74.8,70.0,29.78,East,100,6.9,6.9,85,0.00,CLR,SKC,0.00,WeatherDisplay:10.37,2013-06-24 10:00:00,
2013-06-24 05:06:00,74.6,69.8,29.77,SE,136,5.3,5.3,85,0.00,CLR,SKC,0.00,WeatherDisplay:10.37,2013-06-24 10:06:00,
2013-06-24 05:11:00,74.4,69.9,29.78,ESE,121,4.6,4.6,86,0.00,CLR,SKC,0.00,WeatherDisplay:10.37,2013-06-24 10:11:00,
2013-06-24 05:16:00,74.4,69.9,29.77,ESE,108,4.2,4.2,86,0.00,CLR,SKC,0.00,WeatherDisplay:10.37,2013-06-24 10:16:00,
2013-06-24 05:21:00,74.3,69.8,29.77,ESE,121,5.8,5.8,86,0.00,CLR,SKC,0.00,WeatherDisplay:10.37,2013-06-24 10:21:00,
2013-06-24 05:26:00,74.1,69.6,29.77,ESE,108,4.6,4.6,86,0.00,CLR,SKC,0.00,WeatherDisplay:10.37,2013-06-24 10:26:00,
2013-06-24 05:31:00,74.1,69.6,29.76,ESE,103,5.8,5.8,86,0.00,CLR,SKC,0.00,WeatherDisplay:10.37,2013-06-24 10:31:00,
2013-06-24 05:37:00,74.0,69.5,29.76,SE,132,5.8,5.8,86,0.00,CLR,SKC,0.00,WeatherDisplay:10.37,2013-06-24 10:37:00,
2013-06-24 05:43:00,74.0,69.5,29.76,ESE,108,5.8,5.8,86,0.00,CLR,SKC,0.00,WeatherDisplay:10.37,2013-06-24 10:43:00,
2013-06-24 05:48:00,73.9,69.8,29.77,SE,139,5.8,5.8,87,0.00,CLR,SKC,0.00,WeatherDisplay:10.37,2013-06-24 10:48:00,
2013-06-24 05:54:00,73.9,69.4,29.76,ESE,103,11.7,11.7,86,0.00,CLR,SKC,0.00,WeatherDisplay:10.37,2013-06-24 10:54:00,
2013-06-24 05:59:00,73.9,69.4,29.76,SE,135,6.9,6.9,86,0.00,CLR,SKC,0.00,WeatherDisplay:10.37,2013-06-24 10:59:00,
2013-06-24 06:04:00,74.0,69.5,29.77,ESE,110,8.5,8.5,86,0.00,CLR,SKC,0.00,WeatherDisplay:10.37,2013-06-24 11:04:00,
2013-06-24 06:09:00,74.1,69.6,29.77,SE,129,11.7,11.7,86,0.00,CLR,SKC,0.00,WeatherDisplay:10.37,2013-06-24 11:09:00,
2013-06-24 06:15:00,74.2,69.7,29.77,SSE,155,7.4,7.4,86,0.00,CLR,SKC,0.00,WeatherDisplay:10.37,2013-06-24 11:15:00,
2013-06-24 06:20:00,74.2,69.7,29.77,ESE,110,9.2,9.2,86,0.00,CLR,SKC,0.00,WeatherDisplay:10.37,2013-06-24 11:20:00,
2013-06-24 06:26:00,74.4,69.6,29.77,ESE,110,8.5,8.5,85,0.00,CLR,SKC,0.00,WeatherDisplay:10.37,2013-06-24 11:26:00,
2013-06-24 06:31:00,74.5,69.7,29.77,SSE,148,8.1,8.1,85,0.00,CLR,SKC,0.00,WeatherDisplay:10.37,2013-06-24 11:31:00,
2013-06-24 06:37:00,74.6,69.8,29.77,SSE,160,7.4,7.4,85,0.00,CLR,SKC,0.00,WeatherDisplay:10.37,2013-06-24 11:37:00,
2013-06-24 06:42:00,74.6,69.8,29.77,SSE,148,5.8,5.8,85,0.00,CLR,SKC,0.00,WeatherDisplay:10.37,2013-06-24 11:42:00,
2013-06-24 06:47:00,74.6,69.8,29.77,ESE,110,7.4,7.4,85,0.00,CLR,SKC,0.00,WeatherDisplay:10.37,2013-06-24 11:47:00,
2013-06-24 06:52:00,74.6,69.8,29.76,ESE,117,5.8,5.8,85,0.00,CLR,SKC,0.00,WeatherDisplay:10.37,2013-06-24 11:52:00,
2013-06-24 06:57:00,74.6,69.8,29.76,ESE,117,8.5,8.5,85,0.00,CLR,SKC,0.00,WeatherDisplay:10.37,2013-06-24 11:57:00,
2013-06-24 07:02:00,74.6,69.8,29.76,SE,139,7.4,7.4,85,0.00,CLR,SKC,0.00,WeatherDisplay:10.37,2013-06-24 12:02:00,
2013-06-24 07:07:00,74.6,69.8,29.76,ESE,117,8.5,8.5,85,0.00,CLR,SKC,0.00,WeatherDisplay:10.37,2013-06-24 12:07:00,
2013-06-24 07:13:00,74.6,70.1,29.76,SE,124,8.5,8.5,86,0.00,CLR,SKC,0.00,WeatherDisplay:10.37,2013-06-24 12:13:00,
2013-06-24 07:18:00,74.6,70.1,29.76,ESE,119,8.5,8.5,86,0.00,CLR,SKC,0.00,WeatherDisplay:10.37,2013-06-24 12:18:00,
2013-06-24 07:23:00,74.6,70.1,29.77,SE,131,7.4,7.4,86,0.00,CLR,SKC,0.00,WeatherDisplay:10.37,2013-06-24 12:23:00,
2013-06-24 07:28:00,74.7,70.2,29.77,East,101,4.2,4.2,86,0.00,CLR,SKC,0.00,WeatherDisplay:10.37,2013-06-24 12:28:00,
2013-06-24 07:34:00,74.7,70.2,29.77,East,86,5.8,5.8,86,0.00,CLR,SKC,0.00,WeatherDisplay:10.37,2013-06-24 12:34:00,
2013-06-24 07:39:00,74.7,70.2,29.77,ESE,109,7.4,7.4,86,0.00,CLR,SKC,0.00,WeatherDisplay:10.37,2013-06-24 12:39:00,
2013-06-24 07:44:00,74.8,70.3,29.78,ESE,110,6.9,6.9,86,0.00,CLR,SKC,0.00,WeatherDisplay:10.37,2013-06-24 12:44:00,
2013-06-24 07:50:00,74.9,70.4,29.79,SE,129,1.2,0.0,86,0.00,CLR,SKC,0.00,WeatherDisplay:10.37,2013-06-24 12:50:00,
2013-06-24 07:55:00,75.1,70.3,29.79,SE,143,4.6,4.6,85,0.00,CLR,SKC,0.00,WeatherDisplay:10.37,2013-06-24 12:55:00,
2013-06-24 08:00:00,75.3,70.5,29.78,SE,138,6.4,6.4,85,0.00,CLR,SKC,0.00,WeatherDisplay:10.37,2013-06-24 13:00:00,
2013-06-24 08:05:00,75.6,70.8,29.78,SE,135,4.6,4.6,85,0.00,CLR,SKC,0.00,WeatherDisplay:10.37,2013-06-24 13:05:00,
2013-06-24 08:11:00,75.6,70.4,29.79,ESE,123,2.3,2.3,84,0.00,CLR,SKC,0.00,WeatherDisplay:10.37,2013-06-24 13:11:00,
2013-06-24 08:16:00,75.7,70.5,29.80,NNW,330,2.3,2.3,84,0.00,CLR,SKC,0.00,WeatherDisplay:10.37,2013-06-24 13:16:00,
2013-06-24 08:21:00,75.9,70.7,29.79,ENE,72,0.0,0.0,84,0.00,CLR,SKC,0.00,WeatherDisplay:10.37,2013-06-24 13:21:00,
2013-06-24 08:26:00,75.9,70.7,29.79,East,79,0.0,0.0,84,0.00,CLR,SKC,0.00,WeatherDisplay:10.37,2013-06-24 13:26:00,
2013-06-24 08:32:00,76.1,71.3,29.80,East,79,0.0,0.0,85,0.00,CLR,SKC,0.00,WeatherDisplay:10.37,2013-06-24 13:32:00,
2013-06-24 08:38:00,76.2,71.0,29.80,North,349,0.0,0.0,84,0.00,CLR,SKC,0.00,WeatherDisplay:10.37,2013-06-24 13:38:00,
2013-06-24 08:43:00,76.3,70.8,29.79,SE,131,1.2,0.0,83,0.00,CLR,SKC,0.00,WeatherDisplay:10.37,2013-06-24 13:43:00,
2013-06-24 08:48:00,76.4,71.2,29.80,ESE,113,0.0,0.0,84,0.00,CLR,SKC,0.00,WeatherDisplay:10.37,2013-06-24 13:48:00,
2013-06-24 08:53:00,76.6,70.7,29.81,ESE,111,0.0,0.0,82,0.00,CLR,SKC,0.00,WeatherDisplay:10.37,2013-06-24 13:53:00,
2013-06-24 08:58:00,76.8,70.9,29.81,SW,215,2.3,2.3,82,0.00,CLR,SKC,0.00,WeatherDisplay:10.37,2013-06-24 13:58:00,
2013-06-24 09:04:00,76.8,71.2,29.82,West,274,1.2,0.0,83,0.00,CLR,SKC,0.00,WeatherDisplay:10.37,2013-06-24 14:04:00,
2013-06-24 09:09:00,76.7,70.8,29.83,SW,221,3.5,3.5,82,0.00,CLR,SKC,0.00,WeatherDisplay:10.37,2013-06-24 14:09:00,
2013-06-24 09:14:00,76.4,70.9,29.83,SW,214,4.6,4.6,83,0.01,RA,SKC,0.01,WeatherDisplay:10.37,2013-06-24 14:14:00,
2013-06-24 09:20:00,75.7,70.2,29.84,SW,221,5.0,10.0,83,0.00,RA,SKC,0.02,WeatherDisplay:10.37,2013-06-24 14:20:00,
2013-06-24 09:25:00,75.3,70.5,29.84,SW,236,3.5,3.5,85,0.02,RA,SKC,0.02,WeatherDisplay:10.37,2013-06-24 14:25:00,
2013-06-24 09:30:00,74.9,70.4,29.85,South,174,5.3,5.3,86,0.02,CLR,SKC,0.02,WeatherDisplay:10.37,2013-06-24 14:30:00,
2013-06-24 09:35:00,74.6,70.5,29.86,SW,227,6.9,6.9,87,0.02,CLR,SKC,0.02,WeatherDisplay:10.37,2013-06-24 14:35:00,
2013-06-24 09:40:00,74.5,70.4,29.85,SSW,197,6.9,6.9,87,0.03,RA,SKC,0.03,WeatherDisplay:10.37,2013-06-24 14:40:00,
2013-06-24 09:45:00,74.3,70.2,29.84,SW,235,6.4,6.4,87,0.05,RA,SKC,0.05,WeatherDisplay:10.37,2013-06-24 14:45:00,
2013-06-24 09:50:00,73.9,69.4,29.83,NW,307,3.5,3.5,86,0.07,RA,SKC,0.07,WeatherDisplay:10.37,2013-06-24 14:50:00,
2013-06-24 09:56:00,73.4,69.6,29.83,WNW,300,2.3,2.3,88,0.07,RA,SKC,0.08,WeatherDisplay:10.37,2013-06-24 14:56:00,
2013-06-24 10:02:00,73.0,69.6,29.85,SW,234,2.3,2.3,89,0.08,RA,SKC,0.08,WeatherDisplay:10.37,2013-06-24 15:02:00,
2013-06-24 10:07:00,72.8,69.4,29.84,SW,228,0.0,0.0,89,0.08,RA,SKC,0.08,WeatherDisplay:10.37,2013-06-24 15:07:00,
2013-06-24 10:12:00,72.5,69.1,29.82,WNW,301,2.1,2.1,89,0.09,RA,SKC,0.09,WeatherDisplay:10.37,2013-06-24 15:12:00,
2013-06-24 10:17:00,72.2,69.1,29.83,WNW,302,3.5,3.5,90,0.07,RA,SKC,0.09,WeatherDisplay:10.37,2013-06-24 15:17:00,
2013-06-24 10:22:00,72.0,69.2,29.81,NW,319,7.4,7.4,91,0.08,RA,SKC,0.11,WeatherDisplay:10.37,2013-06-24 15:22:00,
2013-06-24 10:28:00,71.8,69.3,29.79,NW,310,9.5,9.5,92,0.09,RA,SKC,0.11,WeatherDisplay:10.37,2013-06-24 15:28:00,
2013-06-24 10:33:00,71.8,69.3,29.78,NNW,345,9.5,9.5,92,0.10,RA,SKC,0.12,WeatherDisplay:10.37,2013-06-24 15:33:00,
2013-06-24 10:38:00,72.0,69.5,29.81,NNW,338,4.6,4.6,92,0.10,RA,SKC,0.13,WeatherDisplay:10.37,2013-06-24 15:38:00,
2013-06-24 10:44:00,72.8,69.4,29.81,SE,126,14.8,14.8,89,0.09,RA,SKC,0.14,WeatherDisplay:10.37,2013-06-24 15:44:00,
2013-06-24 10:49:00,72.0,69.2,29.81,SSE,151,11.7,11.7,91,0.08,RA,SKC,0.14,WeatherDisplay:10.37,2013-06-24 15:49:00,
2013-06-24 10:55:00,71.7,69.3,29.78,ESE,118,20.1,20.1,92,0.09,RA,SKC,0.15,WeatherDisplay:10.37,2013-06-24 15:55:00,
2013-06-24 11:00:00,71.7,69.3,29.83,South,177,16.1,16.1,92,0.08,RA,SKC,0.15,WeatherDisplay:10.37,2013-06-24 16:00:00,
2013-06-24 11:06:00,72.0,69.9,29.78,ESE,103,20.7,20.7,93,0.09,RA,SKC,0.16,WeatherDisplay:10.37,2013-06-24 16:06:00,
2013-06-24 11:11:00,72.1,70.0,29.77,SE,127,15.0,15.0,93,0.08,RA,SKC,0.16,WeatherDisplay:10.37,2013-06-24 16:11:00,
2013-06-24 11:16:00,72.2,69.7,29.75,East,88,24.4,24.4,92,0.08,CLR,SKC,0.16,WeatherDisplay:10.37,2013-06-24 16:16:00,
2013-06-24 11:21:00,72.3,69.8,29.71,ESE,105,21.2,21.2,92,0.07,CLR,SKC,0.16,WeatherDisplay:10.37,2013-06-24 16:21:00,
2013-06-24 11:27:00,72.3,69.2,29.69,East,89,25.3,25.3,90,0.05,CLR,SKC,0.16,WeatherDisplay:10.37,2013-06-24 16:27:00,
2013-06-24 11:32:00,72.4,69.0,29.69,ESE,108,22.3,22.3,89,0.04,CLR,SKC,0.16,WeatherDisplay:10.37,2013-06-24 16:32:00,
2013-06-24 11:38:00,72.6,68.5,29.70,ESE,113,22.3,22.3,87,0.05,RA,SKC,0.18,WeatherDisplay:10.37,2013-06-24 16:38:00,
2013-06-24 11:43:00,72.6,68.2,29.70,East,96,15.0,15.0,86,0.04,,SKC,0.18,WeatherDisplay:10.37,2013-06-24 16:43:00,
2013-06-24 11:48:00,72.9,68.1,29.70,ESE,102,20.7,20.7,85,0.03,CLR,SKC,0.18,WeatherDisplay:10.37,2013-06-24 16:48:00,
2013-06-24 11:54:00,72.9,67.8,29.71,East,100,14.8,14.8,84,0.02,CLR,SKC,0.18,WeatherDisplay:10.37,2013-06-24 16:54:00,
2013-06-24 11:59:00,73.0,67.9,29.68,ESE,105,18.4,18.4,84,0.02,CLR,SKC,0.18,WeatherDisplay:10.37,2013-06-24 16:59:00,
2013-06-24 12:04:00,72.8,67.7,29.69,ESE,106,17.3,17.3,84,0.01,CLR,SKC,0.18,WeatherDisplay:10.37,2013-06-24 17:04:00,
2013-06-24 12:09:00,72.7,67.9,29.71,ESE,102,12.7,12.7,85,0.01,CLR,SKC,0.18,WeatherDisplay:10.37,2013-06-24 17:09:00,
2013-06-24 12:14:00,72.7,67.6,29.73,NE,46,1.1,0.0,84,0.01,CLR,SKC,0.18,WeatherDisplay:10.37,2013-06-24 17:14:00,
2013-06-24 12:20:00,72.6,67.5,29.72,SE,127,6.9,6.9,84,0.01,CLR,SKC,0.18,WeatherDisplay:10.37,2013-06-24 17:20:00,
2013-06-24 12:25:00,72.3,67.9,29.73,West,276,4.6,4.6,86,0.01,CLR,SKC,0.18,WeatherDisplay:10.37,2013-06-24 17:25:00,
2013-06-24 12:30:00,71.8,68.1,29.74,WNW,298,5.3,5.3,88,0.01,CLR,SKC,0.18,WeatherDisplay:10.37,2013-06-24 17:30:00,
2013-06-24 12:35:00,71.6,67.9,29.74,SW,231,1.2,1.2,88,0.00,CLR,SKC,0.18,WeatherDisplay:10.37,2013-06-24 17:35:00,
2013-06-24 12:41:00,71.5,67.8,29.72,NW,311,2.1,2.1,88,0.00,CLR,SKC,0.18,WeatherDisplay:10.37,2013-06-24 17:41:00,
2013-06-24 12:46:00,71.6,67.9,29.74,WNW,293,3.5,3.5,88,0.00,CLR,SKC,0.18,WeatherDisplay:10.37,2013-06-24 17:46:00,
2013-06-24 12:51:00,71.6,67.5,29.74,WNW,300,3.5,3.5,87,0.00,CLR,SKC,0.18,WeatherDisplay:10.37,2013-06-24 17:51:00,
2013-06-24 12:56:00,71.9,67.5,29.74,NW,306,5.8,5.8,86,0.00,CLR,SKC,0.18,WeatherDisplay:10.37,2013-06-24 17:56:00,
2013-06-24 13:01:00,72.1,67.3,29.75,West,269,3.5,3.5,85,0.00,CLR,SKC,0.18,WeatherDisplay:10.37,2013-06-24 18:01:00,
2013-06-24 13:06:00,72.5,67.4,29.76,SSW,205,4.6,4.6,84,0.00,CLR,SKC,0.18,WeatherDisplay:10.37,2013-06-24 18:06:00,
2013-06-24 13:11:00,72.7,67.2,29.77,SW,236,8.5,8.5,83,0.00,CLR,SKC,0.18,WeatherDisplay:10.37,2013-06-24 18:11:00,
2013-06-24 13:17:00,72.9,67.4,29.76,South,170,7.4,7.4,83,0.00,CLR,SKC,0.18,WeatherDisplay:10.37,2013-06-24 18:17:00,
2013-06-24 13:22:00,73.0,67.9,29.77,SW,229,7.4,7.4,84,0.00,CLR,SKC,0.18,WeatherDisplay:10.37,2013-06-24 18:22:00,
2013-06-24 13:27:00,73.0,68.2,29.77,SSW,209,5.8,5.8,85,0.00,CLR,SKC,0.18,WeatherDisplay:10.37,2013-06-24 18:27:00,
2013-06-24 13:33:00,73.0,68.2,29.74,ESE,123,6.9,6.9,85,0.00,CLR,SKC,0.18,WeatherDisplay:10.37,2013-06-24 18:33:00,
2013-06-24 13:38:00,73.0,68.6,29.74,South,176,4.6,4.6,86,0.00,CLR,SKC,0.18,WeatherDisplay:10.37,2013-06-24 18:38:00,
2013-06-24 13:44:00,73.3,68.5,29.75,SSE,158,3.5,3.5,85,0.00,CLR,SKC,0.18,WeatherDisplay:10.37,2013-06-24 18:44:00,
2013-06-24 13:49:00,73.7,68.6,29.76,SW,232,3.5,3.5,84,0.00,CLR,SKC,0.18,WeatherDisplay:10.37,2013-06-24 18:49:00,
2013-06-24 13:54:00,73.9,68.8,29.74,SE,143,4.6,4.6,84,0.00,CLR,SKC,0.18,WeatherDisplay:10.37,2013-06-24 18:54:00,
2013-06-24 13:59:00,73.9,68.8,29.74,SE,146,0.0,0.0,84,0.00,CLR,SKC,0.18,WeatherDisplay:10.37,2013-06-24 18:59:00,
2013-06-24 14:04:00,74.1,69.0,29.75,SE,129,0.0,0.0,84,0.00,CLR,SKC,0.18,WeatherDisplay:10.37,2013-06-24 19:04:00,
2013-06-24 14:10:00,74.5,69.3,29.75,SE,145,6.9,6.9,84,0.00,CLR,SKC,0.18,WeatherDisplay:10.37,2013-06-24 19:10:00,
2013-06-24 14:15:00,74.8,70.3,29.75,SE,131,3.5,3.5,86,0.00,CLR,SKC,0.18,WeatherDisplay:10.37,2013-06-24 19:15:00,
2013-06-24 14:20:00,74.8,69.6,29.75,SE,143,2.3,2.3,84,0.00,CLR,SKC,0.18,WeatherDisplay:10.37,2013-06-24 19:20:00,
2013-06-24 14:26:00,74.8,69.6,29.75,SE,141,5.8,5.8,84,0.00,CLR,SKC,0.18,WeatherDisplay:10.37,2013-06-24 19:26:00,
2013-06-24 14:31:00,74.4,69.6,29.73,SE,124,12.7,12.7,85,0.01,RA,SKC,0.19,WeatherDisplay:10.37,2013-06-24 19:31:00,
2013-06-24 14:36:00,73.8,69.7,29.73,SE,137,9.2,9.2,87,0.04,RA,SKC,0.22,WeatherDisplay:10.37,2013-06-24 19:36:00,
2013-06-24 14:43:00,73.7,69.9,29.74,ESE,110,4.6,4.6,88,0.04,RA,SKC,0.22,WeatherDisplay:10.37,2013-06-24 19:43:00,
2013-06-24 14:48:00,74.0,69.9,29.72,ESE,106,7.4,7.4,87,0.04,CLR,SKC,0.22,WeatherDisplay:10.37,2013-06-24 19:48:00,
2013-06-24 14:53:00,74.7,71.2,29.73,SSE,156,5.8,5.8,89,0.04,CLR,SKC,0.22,WeatherDisplay:10.37,2013-06-24 19:53:00,
2013-06-24 14:59:00,75.4,71.6,29.73,SE,141,10.6,10.6,88,0.04,CLR,SKC,0.22,WeatherDisplay:10.37,2013-06-24 19:59:00,
2013-06-24 15:07:00,76.4,71.6,29.72,ESE,122,11.5,11.5,85,0.04,CLR,SKC,0.22,WeatherDisplay:10.37,2013-06-24 20:07:00,
2013-06-24 15:12:00,77.4,71.8,29.72,SE,139,8.1,8.1,83,0.04,CLR,SKC,0.22,WeatherDisplay:10.37,2013-06-24 20:12:00,
2013-06-24 15:17:00,78.4,72.1,29.72,SE,136,8.5,8.5,81,0.04,CLR,SKC,0.22,WeatherDisplay:10.37,2013-06-24 20:17:00,
2013-06-24 15:23:00,78.7,71.3,29.72,ESE,115,12.7,12.7,78,0.04,CLR,SKC,0.22,WeatherDisplay:10.37,2013-06-24 20:23:00,
2013-06-24 15:28:00,79.3,72.6,29.71,ESE,115,13.8,13.8,80,0.03,CLR,SKC,0.22,WeatherDisplay:10.37,2013-06-24 20:28:00,
2013-06-24 15:33:00,79.5,71.3,29.71,SE,138,12.7,12.7,76,0.02,CLR,SKC,0.22,WeatherDisplay:10.37,2013-06-24 20:33:00,
2013-06-24 15:39:00,79.4,71.9,29.70,SE,129,10.6,10.6,78,0.00,CLR,SKC,0.22,WeatherDisplay:10.37,2013-06-24 20:39:00,
2013-06-24 15:44:00,79.4,71.9,29.70,SE,136,11.7,11.7,78,0.00,CLR,SKC,0.22,WeatherDisplay:10.37,2013-06-24 20:44:00,
2013-06-24 15:49:00,79.5,72.4,29.69,SE,136,11.7,11.7,79,0.00,CLR,SKC,0.22,WeatherDisplay:10.37,2013-06-24 20:49:00,
2013-06-24 15:54:00,79.9,73.2,29.68,East,94,10.6,10.6,80,0.00,CLR,SKC,0.22,WeatherDisplay:10.37,2013-06-24 20:54:00,
2013-06-24 16:00:00,80.5,73.4,29.68,ESE,102,13.8,13.8,79,0.00,CLR,SKC,0.22,WeatherDisplay:10.37,2013-06-24 21:00:00,
2013-06-24 16:05:00,80.6,73.9,29.67,ESE,115,15.0,15.0,80,0.00,CLR,SKC,0.22,WeatherDisplay:10.37,2013-06-24 21:05:00,
2013-06-24 16:10:00,80.6,73.5,29.67,SE,127,15.0,15.0,79,0.00,CLR,SKC,0.22,WeatherDisplay:10.37,2013-06-24 21:10:00,
2013-06-24 16:16:00,80.6,73.1,29.67,ESE,102,15.9,15.9,78,0.00,CLR,SKC,0.22,WeatherDisplay:10.37,2013-06-24 21:16:00,
2013-06-24 16:21:00,80.9,73.8,29.67,ESE,116,13.8,13.8,79,0.00,CLR,SKC,0.22,WeatherDisplay:10.37,2013-06-24 21:21:00,
2013-06-24 16:26:00,81.3,74.5,29.67,ESE,118,9.5,9.5,80,0.00,CLR,SKC,0.22,WeatherDisplay:10.37,2013-06-24 21:26:00,
2013-06-24 16:31:00,81.5,74.0,29.67,SE,128,13.8,13.8,78,0.00,CLR,SKC,0.22,WeatherDisplay:10.37,2013-06-24 21:31:00,
2013-06-24 16:37:00,81.7,73.8,29.68,SE,132,10.6,10.6,77,0.00,CLR,SKC,0.22,WeatherDisplay:10.37,2013-06-24 21:37:00,
2013-06-24 16:42:00,81.7,73.8,29.68,SE,132,9.5,9.5,77,0.00,CLR,SKC,0.22,WeatherDisplay:10.37,2013-06-24 21:42:00,
2013-06-24 16:47:00,81.7,74.2,29.69,SE,128,7.4,7.4,78,0.00,CLR,SKC,0.22,WeatherDisplay:10.37,2013-06-24 21:47:00,
2013-06-24 16:52:00,81.9,74.4,29.69,SE,126,7.4,7.4,78,0.00,CLR,SKC,0.22,WeatherDisplay:10.37,2013-06-24 21:52:00,
2013-06-24 16:57:00,81.6,74.1,29.70,SE,142,6.9,6.9,78,0.00,CLR,SKC,0.22,WeatherDisplay:10.37,2013-06-24 21:57:00,
2013-06-24 17:03:00,81.5,73.6,29.69,ESE,117,8.5,8.5,77,0.00,CLR,SKC,0.22,WeatherDisplay:10.37,2013-06-24 22:03:00,
2013-06-24 17:08:00,81.2,73.3,29.69,SE,131,12.7,12.7,77,0.00,CLR,SKC,0.22,WeatherDisplay:10.37,2013-06-24 22:08:00,
2013-06-24 17:14:00,80.8,73.3,29.69,ESE,123,9.5,9.5,78,0.00,CLR,SKC,0.22,WeatherDisplay:10.37,2013-06-24 22:14:00,
2013-06-24 17:19:00,80.7,74.0,29.68,SE,137,8.5,8.5,80,0.00,CLR,SKC,0.22,WeatherDisplay:10.37,2013-06-24 22:19:00,
2013-06-24 17:24:00,81.0,74.2,29.68,ESE,118,8.5,8.5,80,0.00,CLR,SKC,0.22,WeatherDisplay:10.37,2013-06-24 22:24:00,
2013-06-24 17:30:00,81.4,74.3,29.68,SE,139,9.2,9.2,79,0.00,CLR,SKC,0.22,WeatherDisplay:10.37,2013-06-24 22:30:00,
2013-06-24 17:35:00,81.3,73.4,29.68,ESE,111,11.7,11.7,77,0.00,CLR,SKC,0.22,WeatherDisplay:10.37,2013-06-24 22:35:00,
2013-06-24 17:41:00,81.7,74.5,29.68,ESE,113,13.8,13.8,79,0.00,CLR,SKC,0.22,WeatherDisplay:10.37,2013-06-24 22:41:00,
2013-06-24 17:47:00,81.9,74.4,29.68,ESE,117,10.6,10.6,78,0.00,CLR,SKC,0.22,WeatherDisplay:10.37,2013-06-24 22:47:00,
2013-06-24 17:52:00,81.9,74.0,29.68,ESE,103,10.4,10.4,77,0.00,CLR,SKC,0.22,WeatherDisplay:10.37,2013-06-24 22:52:00,
2013-06-24 17:57:00,82.1,74.6,29.67,ESE,119,8.5,8.5,78,0.00,CLR,SKC,0.22,WeatherDisplay:10.37,2013-06-24 22:57:00,
2013-06-24 18:03:00,82.1,74.9,29.68,East,94,8.5,8.5,79,0.00,CLR,SKC,0.22,WeatherDisplay:10.37,2013-06-24 23:03:00,
2013-06-24 18:08:00,82.2,74.7,29.68,ESE,104,8.5,8.5,78,0.00,CLR,SKC,0.22,WeatherDisplay:10.37,2013-06-24 23:08:00,
2013-06-24 18:13:00,82.3,74.4,29.68,East,87,9.2,9.2,77,0.00,CLR,SKC,0.22,WeatherDisplay:10.37,2013-06-24 23:13:00,
2013-06-24 18:18:00,82.1,74.6,29.67,ESE,117,8.5,8.5,78,0.00,CLR,SKC,0.22,WeatherDisplay:10.37,2013-06-24 23:18:00,
2013-06-24 18:23:00,82.3,74.7,29.67,East,96,8.5,8.5,78,0.00,CLR,SKC,0.22,WeatherDisplay:10.37,2013-06-24 23:23:00,
2013-06-24 18:28:00,82.2,74.7,29.67,SE,137,7.4,7.4,78,0.00,CLR,SKC,0.22,WeatherDisplay:10.37,2013-06-24 23:28:00,
2013-06-24 18:33:00,82.4,75.2,29.67,ESE,118,7.4,7.4,79,0.00,CLR,SKC,0.22,WeatherDisplay:10.37,2013-06-24 23:33:00,
2013-06-24 18:39:00,82.5,75.3,29.67,East,101,6.9,6.9,79,0.00,CLR,SKC,0.22,WeatherDisplay:10.37,2013-06-24 23:39:00,
2013-06-24 18:44:00,82.5,75.3,29.67,ESE,105,6.9,6.9,79,0.00,CLR,SKC,0.22,WeatherDisplay:10.37,2013-06-24 23:44:00,
2013-06-24 18:49:00,82.5,75.3,29.67,SE,133,6.4,6.4,79,0.00,CLR,SKC,0.22,WeatherDisplay:10.37,2013-06-24 23:49:00,
2013-06-24 18:54:00,82.5,75.7,29.67,ESE,120,6.4,6.4,80,0.00,CLR,SKC,0.22,WeatherDisplay:10.37,2013-06-24 23:54:00,
2013-06-24 19:00:00,82.5,75.7,29.67,SSE,148,6.9,6.9,80,0.00,CLR,SKC,0.22,WeatherDisplay:10.37,2013-06-25 00:00:00,
2013-06-24 19:05:00,82.6,75.8,29.67,SE,131,5.8,5.8,80,0.00,CLR,SKC,0.22,WeatherDisplay:10.37,2013-06-25 00:05:00,
2013-06-24 19:11:00,82.7,75.9,29.67,SE,127,5.8,5.8,80,0.00,CLR,SKC,0.22,WeatherDisplay:10.37,2013-06-25 00:11:00,
2013-06-24 19:17:00,83.2,75.2,29.67,SE,146,5.8,5.8,77,0.00,CLR,SKC,0.22,WeatherDisplay:10.37,2013-06-25 00:17:00,
2013-06-24 19:22:00,83.9,73.5,29.67,SSE,166,8.1,8.1,71,0.00,CLR,SKC,0.22,WeatherDisplay:10.37,2013-06-25 00:22:00,
2013-06-24 19:28:00,84.0,72.7,29.67,SSE,149,6.9,6.9,69,0.00,CLR,SKC,0.22,WeatherDisplay:10.37,2013-06-25 00:28:00,
2013-06-24 19:33:00,83.8,72.5,29.67,SSE,152,5.8,5.8,69,0.00,CLR,SKC,0.22,WeatherDisplay:10.37,2013-06-25 00:33:00,
2013-06-24 19:39:00,83.6,72.8,29.67,SE,142,8.5,8.5,70,0.00,CLR,SKC,0.22,WeatherDisplay:10.37,2013-06-25 00:39:00,
2013-06-24 19:44:00,83.2,72.8,29.67,SE,146,4.6,4.6,71,0.00,CLR,SKC,0.22,WeatherDisplay:10.37,2013-06-25 00:44:00,
2013-06-24 19:49:00,82.9,72.5,29.67,South,191,6.4,6.4,71,0.00,CLR,SKC,0.22,WeatherDisplay:10.37,2013-06-25 00:49:00,
2013-06-24 19:54:00,82.6,72.7,29.67,South,191,5.8,5.8,72,0.00,CLR,SKC,0.22,WeatherDisplay:10.37,2013-06-25 00:54:00,
2013-06-24 19:59:00,82.2,72.7,29.67,SE,138,4.6,4.6,73,0.00,CLR,SKC,0.22,WeatherDisplay:10.37,2013-06-25 00:59:00,
2013-06-24 20:05:00,81.6,72.1,29.67,SSW,207,6.9,6.9,73,0.00,CLR,SKC,0.22,WeatherDisplay:10.37,2013-06-25 01:05:00,
2013-06-24 20:11:00,81.3,72.2,29.67,SSE,150,5.8,5.8,74,0.00,CLR,SKC,0.22,WeatherDisplay:10.37,2013-06-25 01:11:00,
2013-06-24 20:16:00,81.2,72.1,29.67,ESE,121,6.9,6.9,74,0.00,CLR,SKC,0.22,WeatherDisplay:10.37,2013-06-25 01:16:00,
2013-06-24 20:21:00,81.0,71.9,29.66,SE,138,6.4,6.4,74,0.00,CLR,SKC,0.22,WeatherDisplay:10.37,2013-06-25 01:21:00,
2013-06-24 20:26:00,80.7,71.6,29.66,SE,125,9.5,9.5,74,0.00,CLR,SKC,0.22,WeatherDisplay:10.37,2013-06-25 01:26:00,
2013-06-24 20:32:00,80.4,71.3,29.66,SE,139,6.9,6.9,74,0.00,CLR,SKC,0.22,WeatherDisplay:10.37,2013-06-25 01:32:00,
2013-06-24 20:37:00,80.1,71.1,29.67,SE,144,6.4,6.4,74,0.00,CLR,SKC,0.22,WeatherDisplay:10.37,2013-06-25 01:37:00,
2013-06-24 20:42:00,79.7,70.7,29.67,SE,131,5.8,5.8,74,0.00,CLR,SKC,0.22,WeatherDisplay:10.37,2013-06-25 01:42:00,
2013-06-24 20:48:00,79.4,70.8,29.68,SE,132,6.9,6.9,75,0.00,CLR,SKC,0.22,WeatherDisplay:10.37,2013-06-25 01:48:00,
2013-06-24 20:53:00,79.1,70.9,29.68,SE,130,5.8,5.8,76,0.00,CLR,SKC,0.22,WeatherDisplay:10.37,2013-06-25 01:53:00,
2013-06-24 20:58:00,78.7,70.9,29.68,SE,138,6.9,6.9,77,0.00,CLR,SKC,0.22,WeatherDisplay:10.37,2013-06-25 01:58:00,
2013-06-24 21:03:00,78.4,71.0,29.68,ESE,110,5.8,5.8,78,0.00,CLR,SKC,0.22,WeatherDisplay:10.37,2013-06-25 02:03:00,
2013-06-24 21:09:00,78.3,70.9,29.68,SE,127,6.4,6.4,78,0.00,CLR,SKC,0.22,WeatherDisplay:10.37,2013-06-25 02:09:00,
2013-06-24 21:15:00,78.2,70.8,29.68,SE,129,7.4,7.4,78,0.00,CLR,SKC,0.22,WeatherDisplay:10.37,2013-06-25 02:15:00,
2013-06-24 21:20:00,78.1,70.7,29.68,SE,132,8.5,8.5,78,0.00,CLR,SKC,0.22,WeatherDisplay:10.37,2013-06-25 02:20:00,
2013-06-24 21:25:00,77.9,70.5,29.68,ESE,108,7.4,7.4,78,0.00,CLR,SKC,0.22,WeatherDisplay:10.37,2013-06-25 02:25:00,
2013-06-24 21:30:00,77.9,70.5,29.67,ESE,109,6.9,6.9,78,0.00,CLR,SKC,0.22,WeatherDisplay:10.37,2013-06-25 02:30:00,
2013-06-24 21:35:00,77.7,69.9,29.67,ESE,102,7.4,7.4,77,0.00,CLR,SKC,0.22,WeatherDisplay:10.37,2013-06-25 02:35:00,
2013-06-24 21:41:00,77.7,69.9,29.68,ESE,105,8.5,8.5,77,0.00,CLR,SKC,0.22,WeatherDisplay:10.37,2013-06-25 02:41:00,
2013-06-24 21:46:00,77.7,69.5,29.68,SE,125,8.5,8.5,76,0.00,CLR,SKC,0.22,WeatherDisplay:10.37,2013-06-25 02:46:00,
2013-06-24 21:57:00,77.8,69.6,29.69,SE,132,10.6,10.6,76,0.00,RA,SKC,0.22,WeatherDisplay:10.37,2013-06-25 02:57:00,
2013-06-24 22:02:00,78.0,69.4,29.69,ESE,106,10.6,10.6,75,0.00,CLR,SKC,0.22,WeatherDisplay:10.37,2013-06-25 03:02:00,
2013-06-24 22:08:00,78.0,69.4,29.69,ESE,103,12.7,12.7,75,0.00,CLR,SKC,0.22,WeatherDisplay:10.37,2013-06-25 03:08:00,
2013-06-24 22:13:00,78.0,69.4,29.69,ESE,120,12.7,12.7,75,0.00,CLR,SKC,0.22,WeatherDisplay:10.37,2013-06-25 03:13:00,
2013-06-24 22:18:00,77.9,69.3,29.69,ESE,110,13.8,13.8,75,0.00,CLR,SKC,0.22,WeatherDisplay:10.37,2013-06-25 03:18:00,
2013-06-24 22:23:00,77.8,69.2,29.69,East,94,11.5,11.5,75,0.00,CLR,SKC,0.22,WeatherDisplay:10.37,2013-06-25 03:23:00,
2013-06-24 22:28:00,77.7,68.7,29.69,ESE,120,12.7,12.7,74,0.00,CLR,SKC,0.22,WeatherDisplay:10.37,2013-06-25 03:28:00,
2013-06-24 22:34:00,77.6,69.0,29.69,SE,130,10.6,10.6,75,0.00,CLR,SKC,0.22,WeatherDisplay:10.37,2013-06-25 03:34:00,
2013-06-24 22:39:00,77.7,68.7,29.69,SE,130,9.2,9.2,74,0.00,CLR,SKC,0.22,WeatherDisplay:10.37,2013-06-25 03:39:00,
2013-06-24 22:44:00,77.6,68.7,29.68,ESE,123,11.7,11.7,74,0.00,CLR,SKC,0.22,WeatherDisplay:10.37,2013-06-25 03:44:00,
2013-06-24 22:49:00,77.7,68.7,29.68,SE,124,15.0,15.0,74,0.00,CLR,SKC,0.22,WeatherDisplay:10.37,2013-06-25 03:49:00,
2013-06-24 22:55:00,77.7,68.7,29.68,SE,135,11.7,11.7,74,0.00,CLR,SKC,0.22,WeatherDisplay:10.37,2013-06-25 03:55:00,
2013-06-24 23:00:00,77.6,68.7,29.67,SE,136,11.7,11.7,74,0.00,CLR,SKC,0.22,WeatherDisplay:10.37,2013-06-25 04:00:00,
2013-06-24 23:01:00,77.6,68.7,29.67,SE,136,11.7,11.7,74,0.00,CLR,SKC,0.22,WeatherDisplay:10.37,2013-06-25 04:01:00,
2013-06-24 23:02:00,77.5,68.6,29.67,SE,136,12.7,12.7,74,0.00,CLR,SKC,0.22,WeatherDisplay:10.37,2013-06-25 04:02:00,
2013-06-24 23:07:00,77.5,68.6,29.67,SE,137,13.8,13.8,74,0.00,CLR,SKC,0.22,WeatherDisplay:10.37,2013-06-25 04:07:00,
2013-06-24 23:12:00,77.4,68.5,29.66,ESE,113,11.7,11.7,74,0.00,CLR,SKC,0.22,WeatherDisplay:10.37,2013-06-25 04:12:00,
2013-06-24 23:17:00,77.2,68.7,29.66,ESE,120,12.7,12.7,75,0.00,CLR,SKC,0.22,WeatherDisplay:10.37,2013-06-25 04:17:00,
2013-06-24 23:22:00,77.1,68.6,29.66,SSE,155,11.7,11.7,75,0.00,CLR,SKC,0.22,WeatherDisplay:10.37,2013-06-25 04:22:00,
2013-06-24 23:27:00,76.9,68.8,29.66,ESE,113,15.0,15.0,76,0.00,CLR,SKC,0.22,WeatherDisplay:10.37,2013-06-25 04:27:00,
2013-06-24 23:32:00,76.7,68.6,29.65,SE,142,12.7,12.7,76,0.00,CLR,SKC,0.22,WeatherDisplay:10.37,2013-06-25 04:32:00,
2013-06-24 23:37:00,76.6,68.5,29.65,SE,127,12.7,12.7,76,0.00,CLR,SKC,0.22,WeatherDisplay:10.37,2013-06-25 04:37:00,
2013-06-24 23:42:00,76.5,68.7,29.65,SE,124,11.7,11.7,77,0.00,CLR,SKC,0.22,WeatherDisplay:10.37,2013-06-25 04:42:00,
2013-06-24 23:47:00,76.8,68.7,29.64,ESE,117,16.1,16.1,76,0.00,CLR,SKC,0.22,WeatherDisplay:10.37,2013-06-25 04:47:00,
2013-06-24 23:52:00,77.1,68.6,29.65,SE,141,11.7,11.7,75,0.00,CLR,SKC,0.22,WeatherDisplay:10.37,2013-06-25 04:52:00,
2013-06-24 23:57:00,77.4,68.5,29.65,SSE,162,7.4,7.4,74,0.00,CLR,SKC,0.22,WeatherDisplay:10.37,2013-06-25 04:57:00,